createdAt,value
2019-02-22T00:00:05.516Z,9.3
2019-02-22T00:01:05.562Z,9.3
2019-02-22T00:02:05.553Z,9.3
2019-02-22T00:03:05.587Z,9.3
2019-02-22T00:04:05.619Z,9.3
2019-02-22T00:05:05.632Z,9.3
2019-02-22T00:06:05.657Z,9.3
2019-02-22T00:07:05.692Z,9.3
2019-02-22T00:08:05.730Z,9.3
2019-02-22T00:09:05.743Z,9.3
2019-02-22T00:10:05.769Z,9.3
2019-02-22T00:11:05.784Z,9.3
2019-02-22T00:12:38.101Z,9.3
2019-02-22T00:13:05.900Z,9.3
2019-02-22T00:14:05.826Z,9.3
2019-02-22T00:15:05.841Z,9.3
2019-02-22T00:16:05.892Z,9.3
2019-02-22T00:17:05.923Z,9.3
2019-02-22T00:18:05.924Z,9.3
2019-02-22T00:19:05.948Z,9.3
2019-02-22T00:20:05.951Z,9.3
2019-02-22T00:21:05.965Z,9.3
2019-02-22T00:22:06.038Z,9.3
2019-02-22T00:23:05.998Z,9.3
2019-02-22T00:24:06.008Z,9.3
2019-02-22T00:25:06.062Z,9.3
2019-02-22T00:26:06.056Z,9.3
2019-02-22T00:27:06.105Z,9.3
2019-02-22T00:28:06.076Z,9.3
2019-02-22T00:29:06.104Z,9.3
2019-02-22T00:30:06.114Z,9.4
2019-02-22T00:31:06.118Z,9.4
2019-02-22T00:32:06.119Z,9.4
2019-02-22T00:33:06.135Z,9.4
2019-02-22T00:34:06.285Z,9.4
2019-02-22T00:35:06.378Z,9.4
2019-02-22T00:36:06.174Z,9.4
2019-02-22T00:37:06.282Z,9.4
2019-02-22T00:38:06.148Z,9.4
2019-02-22T00:39:06.245Z,9.4
2019-02-22T00:40:06.314Z,9.4
2019-02-22T00:41:06.389Z,9.4
2019-02-22T00:42:06.442Z,9.4
2019-02-22T00:43:06.539Z,9.4
2019-02-22T00:44:06.572Z,9.4
2019-02-22T00:45:06.641Z,9.4
2019-02-22T00:46:06.710Z,9.4
2019-02-22T00:47:06.844Z,9.4
2019-02-22T00:48:06.800Z,9.4
2019-02-22T00:49:06.986Z,9.4
2019-02-22T00:50:06.879Z,9.4
2019-02-22T00:51:06.897Z,9.4
2019-02-22T00:52:06.950Z,9.4
2019-02-22T00:53:07.009Z,9.4
2019-02-22T00:54:07.079Z,9.4
2019-02-22T00:55:07.143Z,9.4
2019-02-22T00:56:07.199Z,9.4
2019-02-22T00:57:07.226Z,9.4
2019-02-22T00:58:07.274Z,9.4
2019-02-22T00:59:07.228Z,9.4
2019-02-22T01:00:07.270Z,9.4
2019-02-22T01:01:07.319Z,9.4
2019-02-22T01:02:07.370Z,9.4
2019-02-22T01:03:07.412Z,9.4
2019-02-22T01:04:07.419Z,9.4
2019-02-22T01:05:07.537Z,9.4
2019-02-22T01:06:07.505Z,9.4
2019-02-22T01:07:09.833Z,9.4
2019-02-22T01:08:07.575Z,9.4
2019-02-22T01:09:07.648Z,9.4
2019-02-22T01:10:07.764Z,9.4
2019-02-22T01:11:39.837Z,9.4
2019-02-22T01:12:07.832Z,9.4
2019-02-22T01:13:07.892Z,9.4
2019-02-22T01:14:07.916Z,9.4
2019-02-22T01:15:07.938Z,9.4
2019-02-22T01:16:07.990Z,9.4
2019-02-22T01:17:08.079Z,9.4
2019-02-22T01:18:08.073Z,9.4
2019-02-22T01:19:08.149Z,9.4
2019-02-22T01:20:08.225Z,9.4
2019-02-22T01:21:09.194Z,9.4
2019-02-22T01:22:08.242Z,9.4
2019-02-22T01:23:08.289Z,9.4
2019-02-22T01:24:08.341Z,9.4
2019-02-22T01:25:08.378Z,9.4
2019-02-22T01:26:08.416Z,9.4
2019-02-22T01:27:08.452Z,9.4
2019-02-22T01:28:08.457Z,9.4
2019-02-22T01:29:08.518Z,9.4
2019-02-22T01:30:08.498Z,9.4
2019-02-22T01:31:08.584Z,9.4
2019-02-22T01:32:10.835Z,9.4
2019-02-22T01:33:08.634Z,9.4
2019-02-22T01:34:08.664Z,9.4
2019-02-22T01:35:08.712Z,9.4
2019-02-22T01:36:08.764Z,9.4
2019-02-22T01:37:08.797Z,9.4
2019-02-22T01:38:08.831Z,9.4
2019-02-22T01:39:08.874Z,9.4
2019-02-22T01:41:08.934Z,9.4
2019-02-22T01:42:08.931Z,9.4
2019-02-22T01:43:08.983Z,9.4
2019-02-22T01:44:09.056Z,9.4
2019-02-22T01:45:09.036Z,9.4
2019-02-22T01:46:09.101Z,9.4
2019-02-22T01:47:09.072Z,9.4
2019-02-22T01:48:09.592Z,9.4
2019-02-22T01:49:09.129Z,9.5
2019-02-22T01:50:09.141Z,9.5
2019-02-22T01:51:09.151Z,9.5
2019-02-22T01:52:09.290Z,9.5
2019-02-22T01:53:09.235Z,9.5
2019-02-22T01:54:09.267Z,9.5
2019-02-22T01:55:09.285Z,9.5
2019-02-22T01:56:09.291Z,9.5
2019-02-22T01:57:09.328Z,9.5
2019-02-22T01:58:09.333Z,9.5
2019-02-22T01:59:09.356Z,9.5
2019-02-22T02:00:09.382Z,9.5
2019-02-22T02:01:09.397Z,9.5
2019-02-22T02:02:09.413Z,9.5
2019-02-22T02:03:09.436Z,9.5
2019-02-22T02:04:09.429Z,9.5
2019-02-22T02:05:09.503Z,9.5
2019-02-22T02:06:09.483Z,9.5
2019-02-22T02:07:09.560Z,9.5
2019-02-22T02:08:09.497Z,9.5
2019-02-22T02:09:09.564Z,9.5
2019-02-22T02:10:09.549Z,9.5
2019-02-22T02:11:09.545Z,9.5
2019-02-22T02:12:09.549Z,9.5
2019-02-22T02:13:09.545Z,9.5
2019-02-22T02:14:09.541Z,9.5
2019-02-22T02:15:09.546Z,9.5
2019-02-22T02:16:09.551Z,9.5
2019-02-22T02:17:09.665Z,9.5
2019-02-22T02:18:09.570Z,9.6
2019-02-22T02:19:09.618Z,9.6
2019-02-22T02:20:09.665Z,9.6
2019-02-22T02:21:09.719Z,9.6
2019-02-22T02:22:09.743Z,9.6
2019-02-22T02:23:09.766Z,9.6
2019-02-22T02:24:09.864Z,9.6
2019-02-22T02:25:09.870Z,9.6
2019-02-22T02:26:09.971Z,9.6
2019-02-22T02:27:09.971Z,9.6
2019-02-22T02:28:09.984Z,9.6
2019-02-22T02:29:10.133Z,9.6
2019-02-22T02:30:10.128Z,9.6
2019-02-22T02:31:10.161Z,9.7
2019-02-22T02:32:10.261Z,9.7
2019-02-22T02:33:10.273Z,9.7
2019-02-22T02:34:10.299Z,9.7
2019-02-22T02:35:10.363Z,9.7
2019-02-22T02:36:10.396Z,9.7
2019-02-22T02:37:10.436Z,9.7
2019-02-22T02:38:10.459Z,9.7
2019-02-22T02:39:10.554Z,9.7
2019-02-22T02:40:10.521Z,9.7
2019-02-22T02:41:11.538Z,9.7
2019-02-22T02:42:10.649Z,9.7
2019-02-22T02:43:10.785Z,9.7
2019-02-22T02:44:10.748Z,9.7
2019-02-22T02:45:10.777Z,9.7
2019-02-22T02:46:11.000Z,9.7
2019-02-22T02:47:10.845Z,9.7
2019-02-22T02:48:10.885Z,9.7
2019-02-22T02:49:10.991Z,9.7
2019-02-22T02:50:11.014Z,9.7
2019-02-22T02:51:11.033Z,9.7
2019-02-22T02:52:11.113Z,9.7
2019-02-22T02:53:11.158Z,9.7
2019-02-22T02:54:11.144Z,9.7
2019-02-22T02:55:11.191Z,9.7
2019-02-22T02:56:11.170Z,9.7
2019-02-22T02:57:11.177Z,9.7
2019-02-22T02:58:11.244Z,9.7
2019-02-22T02:59:11.343Z,9.7
2019-02-22T03:00:11.315Z,9.7
2019-02-22T03:01:11.358Z,9.7
2019-02-22T03:02:11.403Z,9.7
2019-02-22T03:03:11.474Z,9.8
2019-02-22T03:04:11.501Z,9.8
2019-02-22T03:05:11.531Z,9.8
2019-02-22T03:06:11.574Z,9.8
2019-02-22T03:07:11.642Z,9.8
2019-02-22T03:08:11.621Z,9.8
2019-02-22T03:09:11.625Z,9.8
2019-02-22T03:10:11.702Z,9.8
2019-02-22T03:11:20.010Z,9.8
2019-02-22T03:12:11.780Z,9.8
2019-02-22T03:13:11.792Z,9.8
2019-02-22T03:14:11.853Z,9.8
2019-02-22T03:15:11.865Z,9.8
2019-02-22T03:16:11.914Z,9.8
2019-02-22T03:17:11.949Z,9.8
2019-02-22T03:18:11.947Z,9.8
2019-02-22T03:19:12.004Z,9.8
2019-02-22T03:20:12.024Z,9.8
2019-02-22T03:21:12.075Z,9.8
2019-02-22T03:22:12.103Z,9.8
2019-02-22T03:23:12.120Z,9.8
2019-02-22T03:24:12.138Z,9.8
2019-02-22T03:25:12.179Z,9.8
2019-02-22T03:26:12.181Z,9.8
2019-02-22T03:27:12.266Z,9.8
2019-02-22T03:28:12.241Z,9.8
2019-02-22T03:29:12.324Z,9.8
2019-02-22T03:30:12.310Z,9.8
2019-02-22T03:31:12.297Z,9.8
2019-02-22T03:32:12.360Z,9.8
2019-02-22T03:33:12.361Z,9.8
2019-02-22T03:34:12.386Z,9.8
2019-02-22T03:35:12.403Z,9.8
2019-02-22T03:36:12.458Z,9.8
2019-02-22T03:37:12.454Z,9.8
2019-02-22T03:38:12.458Z,9.8
2019-02-22T03:39:12.474Z,9.8
2019-02-22T03:40:12.492Z,9.8
2019-02-22T03:41:12.505Z,9.8
2019-02-22T03:42:12.514Z,9.7
2019-02-22T03:43:12.508Z,9.7
2019-02-22T03:44:12.538Z,9.7
2019-02-22T03:45:12.552Z,9.7
2019-02-22T03:46:12.558Z,9.7
2019-02-22T03:47:12.563Z,9.7
2019-02-22T03:48:12.561Z,9.7
2019-02-22T03:49:12.571Z,9.7
2019-02-22T03:50:12.594Z,9.7
2019-02-22T03:51:12.649Z,9.7
2019-02-22T03:52:12.596Z,9.7
2019-02-22T03:53:12.628Z,9.7
2019-02-22T03:54:12.691Z,9.7
2019-02-22T03:55:12.682Z,9.7
2019-02-22T03:56:12.763Z,9.7
2019-02-22T03:57:12.802Z,9.7
2019-02-22T03:58:12.848Z,9.7
2019-02-22T03:59:12.916Z,9.7
2019-02-22T04:00:12.984Z,9.7
2019-02-22T04:01:13.019Z,9.7
2019-02-22T04:02:13.094Z,9.7
2019-02-22T04:03:13.174Z,9.7
2019-02-22T04:04:13.243Z,9.7
2019-02-22T04:05:13.297Z,9.7
2019-02-22T04:06:13.322Z,9.7
2019-02-22T04:07:13.425Z,9.7
2019-02-22T04:08:13.494Z,9.7
2019-02-22T04:09:13.596Z,9.7
2019-02-22T04:10:13.558Z,9.7
2019-02-22T04:11:13.629Z,9.7
2019-02-22T04:12:13.627Z,9.7
2019-02-22T04:13:13.704Z,9.6
2019-02-22T04:14:13.756Z,9.6
2019-02-22T04:15:13.875Z,9.6
2019-02-22T04:16:13.862Z,9.6
2019-02-22T04:17:13.897Z,9.6
2019-02-22T04:18:13.938Z,9.6
2019-02-22T04:19:13.975Z,9.6
2019-02-22T04:20:14.060Z,9.6
2019-02-22T04:21:14.117Z,9.6
2019-02-22T04:22:14.150Z,9.6
2019-02-22T04:23:14.284Z,9.6
2019-02-22T04:24:14.261Z,9.6
2019-02-22T04:25:14.331Z,9.6
2019-02-22T04:26:14.410Z,9.6
2019-02-22T04:27:14.432Z,9.5
2019-02-22T04:28:14.489Z,9.5
2019-02-22T04:29:14.567Z,9.5
2019-02-22T04:30:14.585Z,9.5
2019-02-22T04:31:14.632Z,9.5
2019-02-22T04:32:14.655Z,9.5
2019-02-22T04:33:14.687Z,9.5
2019-02-22T04:34:14.711Z,9.5
2019-02-22T04:35:14.740Z,9.5
2019-02-22T04:36:14.805Z,9.5
2019-02-22T04:37:14.830Z,9.5
2019-02-22T04:38:14.851Z,9.5
2019-02-22T04:39:14.850Z,9.5
2019-02-22T04:40:14.889Z,9.5
2019-02-22T04:41:14.945Z,9.5
2019-02-22T04:42:14.983Z,9.4
2019-02-22T04:43:15.016Z,9.4
2019-02-22T04:44:15.035Z,9.4
2019-02-22T04:45:15.081Z,9.4
2019-02-22T04:46:15.459Z,9.4
2019-02-22T04:47:15.153Z,9.4
2019-02-22T04:48:15.206Z,9.4
2019-02-22T04:49:15.235Z,9.4
2019-02-22T04:50:15.256Z,9.4
2019-02-22T04:51:15.346Z,9.4
2019-02-22T04:52:15.375Z,9.4
2019-02-22T04:53:15.394Z,9.4
2019-02-22T04:54:15.427Z,9.4
2019-02-22T04:55:15.922Z,9.4
2019-02-22T04:56:15.437Z,9.4
2019-02-22T04:57:15.444Z,9.4
2019-02-22T04:58:15.472Z,9.4
2019-02-22T04:59:15.492Z,9.4
2019-02-22T05:00:15.485Z,9.4
2019-02-22T05:01:15.526Z,9.4
2019-02-22T05:02:15.554Z,9.4
2019-02-22T05:03:15.586Z,9.3
2019-02-22T05:04:15.589Z,9.3
2019-02-22T05:05:15.671Z,9.3
2019-02-22T05:06:15.626Z,9.3
2019-02-22T05:07:15.647Z,9.3
2019-02-22T05:08:15.758Z,9.3
2019-02-22T05:09:15.712Z,9.3
2019-02-22T05:10:15.732Z,9.3
2019-02-22T05:11:15.710Z,9.3
2019-02-22T05:12:15.743Z,9.3
2019-02-22T05:13:15.787Z,9.3
2019-02-22T05:14:15.769Z,9.3
2019-02-22T05:15:15.785Z,9.3
2019-02-22T05:16:15.793Z,9.3
2019-02-22T05:17:15.816Z,9.3
2019-02-22T05:18:15.851Z,9.3
2019-02-22T05:19:15.871Z,9.3
2019-02-22T05:20:15.827Z,9.3
2019-02-22T05:21:15.858Z,9.3
2019-02-22T05:22:15.851Z,9.3
2019-02-22T05:23:15.850Z,9.3
2019-02-22T05:24:15.912Z,9.3
2019-02-22T05:25:15.891Z,9.3
2019-02-22T05:26:15.886Z,9.3
2019-02-22T05:27:15.914Z,9.3
2019-02-22T05:28:15.911Z,9.3
2019-02-22T05:29:15.921Z,9.2
2019-02-22T05:30:15.982Z,9.3
2019-02-22T05:31:16.038Z,9.3
2019-02-22T05:32:16.056Z,9.2
2019-02-22T05:33:16.159Z,9.2
2019-02-22T05:34:16.124Z,9.3
2019-02-22T05:35:16.211Z,9.2
2019-02-22T05:36:16.290Z,9.2
2019-02-22T05:37:16.351Z,9.2
2019-02-22T05:38:16.335Z,9.2
2019-02-22T05:39:19.229Z,9.2
2019-02-22T05:40:16.489Z,9.2
2019-02-22T05:41:19.101Z,9.2
2019-02-22T05:42:22.747Z,9.2
2019-02-22T05:43:16.665Z,9.2
2019-02-22T05:44:16.841Z,9.2
2019-02-22T05:45:16.741Z,9.2
2019-02-22T05:46:16.802Z,9.2
2019-02-22T05:47:16.817Z,9.2
2019-02-22T05:48:16.879Z,9.2
2019-02-22T05:49:16.930Z,9.2
2019-02-22T05:50:16.981Z,9.2
2019-02-22T05:51:17.043Z,9.2
2019-02-22T05:52:17.091Z,9.2
2019-02-22T05:53:17.138Z,9.2
2019-02-22T05:54:17.135Z,9.2
2019-02-22T05:55:17.179Z,9.2
2019-02-22T05:56:17.239Z,9.2
2019-02-22T05:57:17.269Z,9.2
2019-02-22T05:58:17.314Z,9.2
2019-02-22T05:59:17.378Z,9.2
2019-02-22T06:00:17.409Z,9.2
2019-02-22T06:01:17.475Z,9.2
2019-02-22T06:02:17.516Z,9.2
2019-02-22T06:03:17.520Z,9.2
2019-02-22T06:04:17.584Z,9.2
2019-02-22T06:05:17.588Z,9.2
2019-02-22T06:06:17.640Z,9.2
2019-02-22T06:07:17.707Z,9.1
2019-02-22T06:08:17.747Z,9.1
2019-02-22T06:09:18.829Z,9.1
2019-02-22T06:10:18.000Z,9.1
2019-02-22T06:11:17.895Z,9.1
2019-02-22T06:12:18.674Z,9.1
2019-02-22T06:13:17.992Z,9.1
2019-02-22T06:14:18.009Z,9.1
2019-02-22T06:15:18.083Z,9.1
2019-02-22T06:16:18.112Z,9.1
2019-02-22T06:17:18.128Z,9.1
2019-02-22T06:18:18.140Z,9.1
2019-02-22T06:19:18.218Z,9.1
2019-02-22T06:20:18.254Z,9.1
2019-02-22T06:21:18.294Z,9.1
2019-02-22T06:22:28.929Z,9.1
2019-02-22T06:23:18.373Z,9.1
2019-02-22T06:24:18.371Z,9.1
2019-02-22T06:25:18.438Z,9.1
2019-02-22T06:26:18.455Z,9.1
2019-02-22T06:27:18.506Z,9.1
2019-02-22T06:28:18.603Z,9.1
2019-02-22T06:29:18.559Z,9
2019-02-22T06:30:18.576Z,9
2019-02-22T06:31:18.621Z,9
2019-02-22T06:32:18.658Z,9
2019-02-22T06:33:18.685Z,9
2019-02-22T06:34:18.707Z,9
2019-02-22T06:35:18.734Z,9
2019-02-22T06:36:18.802Z,9
2019-02-22T06:37:18.790Z,9
2019-02-22T06:38:18.797Z,9
2019-02-22T06:39:18.808Z,9
2019-02-22T06:40:18.843Z,9
2019-02-22T06:41:18.885Z,9
2019-02-22T06:42:18.880Z,9
2019-02-22T06:43:18.894Z,9
2019-02-22T06:44:18.928Z,9
2019-02-22T06:45:18.919Z,9
2019-02-22T06:46:18.928Z,9
2019-02-22T06:47:18.966Z,9
2019-02-22T06:48:18.978Z,9
2019-02-22T06:49:19.002Z,9
2019-02-22T06:50:19.014Z,9
2019-02-22T06:51:19.039Z,8.9
2019-02-22T06:52:19.036Z,8.9
2019-02-22T06:53:19.050Z,8.9
2019-02-22T06:54:19.065Z,8.9
2019-02-22T06:55:19.078Z,8.9
2019-02-22T06:56:19.077Z,8.9
2019-02-22T06:57:19.077Z,8.9
2019-02-22T06:58:21.497Z,8.9
2019-02-22T06:59:19.114Z,8.9
2019-02-22T07:00:19.107Z,8.9
2019-02-22T07:01:19.120Z,8.9
2019-02-22T07:02:19.159Z,8.9
2019-02-22T07:03:19.154Z,8.9
2019-02-22T07:04:19.196Z,8.9
2019-02-22T07:05:19.271Z,8.9
2019-02-22T07:06:19.310Z,8.9
2019-02-22T07:07:19.366Z,8.9
2019-02-22T07:08:19.689Z,8.9
2019-02-22T07:09:19.463Z,8.9
2019-02-22T07:10:19.526Z,8.9
2019-02-22T07:11:19.589Z,8.9
2019-02-22T07:12:19.618Z,8.9
2019-02-22T07:13:19.720Z,8.9
2019-02-22T07:14:19.859Z,8.9
2019-02-22T07:15:19.810Z,8.9
2019-02-22T07:16:19.880Z,8.9
2019-02-22T07:17:19.955Z,8.9
2019-02-22T07:18:20.014Z,8.9
2019-02-22T07:19:20.058Z,8.9
2019-02-22T07:20:20.116Z,8.9
2019-02-22T07:21:20.193Z,8.9
2019-02-22T07:22:20.242Z,8.9
2019-02-22T07:23:20.303Z,8.9
2019-02-22T07:24:20.352Z,8.9
2019-02-22T07:25:20.366Z,8.9
2019-02-22T07:26:20.371Z,8.9
2019-02-22T07:27:20.437Z,8.9
2019-02-22T07:28:20.520Z,8.9
2019-02-22T07:29:22.184Z,8.8
2019-02-22T07:30:20.582Z,8.8
2019-02-22T07:31:20.683Z,8.8
2019-02-22T07:32:20.701Z,8.8
2019-02-22T07:33:20.698Z,8.8
2019-02-22T07:34:20.757Z,8.8
2019-02-22T07:35:20.759Z,8.8
2019-02-22T07:36:20.823Z,8.8
2019-02-22T07:37:20.853Z,8.8
2019-02-22T07:38:20.926Z,8.8
2019-02-22T07:39:27.602Z,8.7
2019-02-22T07:40:21.027Z,8.7
2019-02-22T07:41:21.063Z,8.7
2019-02-22T07:42:21.088Z,8.6
2019-02-22T07:43:21.201Z,8.6
2019-02-22T07:44:21.206Z,8.6
2019-02-22T07:45:21.226Z,8.6
2019-02-22T07:46:21.294Z,8.5
2019-02-22T07:47:21.329Z,8.5
2019-02-22T07:48:21.357Z,8.5
2019-02-22T07:49:21.452Z,8.5
2019-02-22T07:50:21.431Z,8.5
2019-02-22T07:51:21.439Z,8.5
2019-02-22T07:52:21.463Z,8.5
2019-02-22T07:53:21.464Z,8.5
2019-02-22T07:54:21.555Z,8.4
2019-02-22T07:55:21.523Z,8.4
2019-02-22T07:56:21.648Z,8.4
2019-02-22T07:57:21.640Z,8.4
2019-02-22T07:58:21.615Z,8.4
2019-02-22T07:59:21.780Z,8.3
2019-02-22T08:00:21.711Z,8.3
2019-02-22T08:01:21.837Z,8.3
2019-02-22T08:02:21.819Z,8.3
2019-02-22T08:03:21.830Z,8.3
2019-02-22T08:04:21.857Z,8.3
2019-02-22T08:05:21.899Z,8.3
2019-02-22T08:06:22.039Z,8.3
2019-02-22T08:07:22.444Z,8.3
2019-02-22T08:08:22.076Z,8.3
2019-02-22T08:09:22.087Z,8.3
2019-02-22T08:10:22.082Z,8.3
2019-02-22T08:11:22.117Z,8.3
2019-02-22T08:12:22.111Z,8.2
2019-02-22T08:13:22.168Z,8.3
2019-02-22T08:14:22.243Z,8.2
2019-02-22T08:15:22.201Z,8.2
2019-02-22T08:16:22.248Z,8.2
2019-02-22T08:17:22.300Z,8.2
2019-02-22T08:18:22.280Z,8.2
2019-02-22T08:19:22.309Z,8.2
2019-02-22T08:20:22.321Z,8.2
2019-02-22T08:21:22.339Z,8.2
2019-02-22T08:22:22.374Z,8.2
2019-02-22T08:23:22.387Z,8.1
2019-02-22T08:24:22.411Z,8.1
2019-02-22T08:25:22.436Z,8.1
2019-02-22T08:26:22.448Z,8.1
2019-02-22T08:27:22.446Z,8.1
2019-02-22T08:28:22.463Z,8.1
2019-02-22T08:29:22.488Z,8.1
2019-02-22T08:30:22.490Z,8.1
2019-02-22T08:31:22.506Z,8.1
2019-02-22T08:32:22.519Z,8.1
2019-02-22T08:33:22.530Z,8
2019-02-22T08:34:22.557Z,8
2019-02-22T08:35:22.557Z,8
2019-02-22T08:36:22.596Z,8
2019-02-22T08:37:22.575Z,8
2019-02-22T08:38:22.556Z,8
2019-02-22T08:39:22.601Z,8
2019-02-22T08:40:22.583Z,7.9
2019-02-22T08:41:22.597Z,7.9
2019-02-22T08:42:22.631Z,7.9
2019-02-22T08:43:30.982Z,7.9
2019-02-22T08:44:22.624Z,7.9
2019-02-22T08:45:22.643Z,7.9
2019-02-22T08:46:22.693Z,7.8
2019-02-22T08:47:22.688Z,7.8
2019-02-22T08:48:22.748Z,7.8
2019-02-22T08:49:22.833Z,7.8
2019-02-22T08:50:22.900Z,7.7
2019-02-22T08:51:22.943Z,7.7
2019-02-22T08:52:22.977Z,7.7
2019-02-22T08:53:23.074Z,7.6
2019-02-22T08:54:23.115Z,7.6
2019-02-22T08:55:23.198Z,7.5
2019-02-22T08:56:23.260Z,7.5
2019-02-22T08:57:23.277Z,7.5
2019-02-22T08:58:25.813Z,7.4
2019-02-22T08:59:23.351Z,7.4
2019-02-22T09:00:23.407Z,7.4
2019-02-22T09:01:23.473Z,7.4
2019-02-22T09:02:23.519Z,7.3
2019-02-22T09:03:23.570Z,7.3
2019-02-22T09:04:23.604Z,7.3
2019-02-22T09:05:23.606Z,7.3
2019-02-22T09:06:23.672Z,7.2
2019-02-22T09:07:23.762Z,7.2
2019-02-22T09:08:23.781Z,7.2
2019-02-22T09:09:23.823Z,7.2
2019-02-22T09:10:23.871Z,7.1
2019-02-22T09:11:23.898Z,7.1
2019-02-22T09:12:23.902Z,7.1
2019-02-22T09:13:23.911Z,7.1
2019-02-22T09:14:23.976Z,7.1
2019-02-22T09:15:24.052Z,7.1
2019-02-22T09:16:24.103Z,7.1
2019-02-22T09:17:24.177Z,7.1
2019-02-22T09:18:24.206Z,7.1
2019-02-22T09:19:24.280Z,7.1
2019-02-22T09:20:24.333Z,7.1
2019-02-22T09:21:24.413Z,7.1
2019-02-22T09:22:24.388Z,7.1
2019-02-22T09:23:24.444Z,7.1
2019-02-22T09:24:24.501Z,7.1
2019-02-22T09:25:24.542Z,7
2019-02-22T09:26:24.582Z,7
2019-02-22T09:27:24.592Z,7
2019-02-22T09:28:24.628Z,7
2019-02-22T09:29:24.703Z,7
2019-02-22T09:30:24.791Z,7
2019-02-22T09:31:24.718Z,7
2019-02-22T09:32:24.766Z,7
2019-02-22T09:33:24.806Z,7
2019-02-22T09:34:24.856Z,7
2019-02-22T09:35:24.936Z,7
2019-02-22T09:36:24.948Z,7
2019-02-22T09:37:24.965Z,6.9
2019-02-22T09:38:25.040Z,6.9
2019-02-22T09:39:25.078Z,6.9
2019-02-22T09:40:25.090Z,6.9
2019-02-22T09:41:25.103Z,6.9
2019-02-22T09:42:25.138Z,6.9
2019-02-22T09:43:25.140Z,6.9
2019-02-22T09:44:25.170Z,6.9
2019-02-22T09:45:25.180Z,6.9
2019-02-22T09:46:25.298Z,6.9
2019-02-22T09:47:25.243Z,6.9
2019-02-22T09:48:25.311Z,6.8
2019-02-22T09:49:25.337Z,6.8
2019-02-22T09:50:25.364Z,6.8
2019-02-22T09:51:25.393Z,6.8
2019-02-22T09:52:25.422Z,6.8
2019-02-22T09:53:25.448Z,6.8
2019-02-22T09:54:25.694Z,6.8
2019-02-22T09:55:25.514Z,6.8
2019-02-22T09:56:25.533Z,6.8
2019-02-22T09:57:25.584Z,6.7
2019-02-22T09:58:25.591Z,6.7
2019-02-22T09:59:25.617Z,6.7
2019-02-22T10:00:25.645Z,6.7
2019-02-22T10:01:25.701Z,6.7
2019-02-22T10:02:25.672Z,6.7
2019-02-22T10:03:25.740Z,6.7
2019-02-22T10:04:25.743Z,6.6
2019-02-22T10:05:25.764Z,6.6
2019-02-22T10:06:25.772Z,6.6
2019-02-22T10:07:25.856Z,6.6
2019-02-22T10:08:25.805Z,6.6
2019-02-22T10:09:25.820Z,6.6
2019-02-22T10:10:25.846Z,6.6
2019-02-22T10:11:25.916Z,6.6
2019-02-22T10:12:25.849Z,6.6
2019-02-22T10:13:25.865Z,6.6
2019-02-22T10:14:28.391Z,6.6
2019-02-22T10:15:25.931Z,6.5
2019-02-22T10:16:27.550Z,6.5
2019-02-22T10:17:25.925Z,6.5
2019-02-22T10:18:25.945Z,6.5
2019-02-22T10:19:25.930Z,6.5
2019-02-22T10:20:25.924Z,6.5
2019-02-22T10:21:25.986Z,6.5
2019-02-22T10:22:25.908Z,6.5
2019-02-22T10:23:25.952Z,6.5
2019-02-22T10:24:25.929Z,6.5
2019-02-22T10:25:25.989Z,6.5
2019-02-22T10:26:26.032Z,6.5
2019-02-22T10:27:26.042Z,6.5
2019-02-22T10:28:26.062Z,6.5
2019-02-22T10:29:26.090Z,6.5
2019-02-22T10:30:26.159Z,6.5
2019-02-22T10:31:26.183Z,6.5
2019-02-22T10:32:26.258Z,6.5
2019-02-22T10:33:36.165Z,6.5
2019-02-22T10:34:26.342Z,6.5
2019-02-22T10:35:26.422Z,6.5
2019-02-22T10:36:26.483Z,6.5
2019-02-22T10:37:26.467Z,6.4
2019-02-22T10:38:26.539Z,6.4
2019-02-22T10:39:26.573Z,6.3
2019-02-22T10:40:26.614Z,6.3
2019-02-22T10:41:26.695Z,6.3
2019-02-22T10:42:26.740Z,6.3
2019-02-22T10:43:26.801Z,6.3
2019-02-22T10:44:26.835Z,6.2
2019-02-22T10:45:26.898Z,6.2
2019-02-22T10:46:27.019Z,6.2
2019-02-22T10:47:27.010Z,6.1
2019-02-22T10:48:27.058Z,6.1
2019-02-22T10:49:27.151Z,6.1
2019-02-22T10:50:27.123Z,6.1
2019-02-22T10:51:27.207Z,6
2019-02-22T10:52:27.269Z,6
2019-02-22T10:53:27.297Z,6
2019-02-22T10:54:27.298Z,6
2019-02-22T10:55:27.331Z,6
2019-02-22T10:56:28.277Z,6
2019-02-22T10:57:29.886Z,6
2019-02-22T10:58:27.461Z,5.9
2019-02-22T10:59:27.471Z,5.9
2019-02-22T11:00:27.509Z,5.9
2019-02-22T11:01:27.553Z,5.9
2019-02-22T11:02:27.625Z,5.8
2019-02-22T11:03:27.607Z,5.8
2019-02-22T11:04:27.660Z,5.8
2019-02-22T11:05:27.731Z,5.8
2019-02-22T11:06:27.768Z,5.8
2019-02-22T11:07:27.809Z,5.7
2019-02-22T11:08:27.887Z,5.7
2019-02-22T11:09:27.901Z,5.7
2019-02-22T11:10:27.965Z,5.7
2019-02-22T11:11:28.027Z,5.7
2019-02-22T11:12:28.012Z,5.6
2019-02-22T11:13:28.040Z,5.6
2019-02-22T11:14:29.356Z,5.6
2019-02-22T11:15:28.129Z,5.6
2019-02-22T11:16:28.121Z,5.5
2019-02-22T11:17:28.181Z,5.5
2019-02-22T11:18:28.186Z,5.5
2019-02-22T11:19:28.706Z,5.5
2019-02-22T11:20:28.264Z,5.5
2019-02-22T11:21:28.249Z,5.5
2019-02-22T11:22:28.286Z,5.5
2019-02-22T11:23:28.331Z,5.5
2019-02-22T11:24:28.426Z,5.5
2019-02-22T11:25:28.401Z,5.5
2019-02-22T11:26:28.393Z,5.5
2019-02-22T11:27:28.416Z,5.5
2019-02-22T11:28:28.500Z,5.5
2019-02-22T11:29:28.512Z,5.5
2019-02-22T11:30:28.537Z,5.4
2019-02-22T11:31:28.556Z,5.4
2019-02-22T11:32:28.571Z,5.4
2019-02-22T11:33:28.630Z,5.4
2019-02-22T11:34:28.639Z,5.4
2019-02-22T11:35:28.660Z,5.4
2019-02-22T11:36:28.661Z,5.4
2019-02-22T11:37:28.732Z,5.4
2019-02-22T11:38:28.738Z,5.4
2019-02-22T11:39:28.775Z,5.4
2019-02-22T11:40:28.770Z,5.4
2019-02-22T11:41:28.817Z,5.4
2019-02-22T11:42:28.860Z,5.3
2019-02-22T11:43:28.841Z,5.3
2019-02-22T11:44:39.578Z,5.3
2019-02-22T11:45:28.872Z,5.4
2019-02-22T11:46:28.884Z,5.4
2019-02-22T11:47:28.950Z,5.4
2019-02-22T11:48:28.905Z,5.4
2019-02-22T11:49:28.958Z,5.4
2019-02-22T11:50:29.014Z,5.3
2019-02-22T11:51:28.965Z,5.3
2019-02-22T11:52:29.005Z,5.3
2019-02-22T11:53:29.014Z,5.3
2019-02-22T11:54:29.004Z,5.3
2019-02-22T11:55:29.050Z,5.3
2019-02-22T11:56:29.030Z,5.2
2019-02-22T11:57:29.016Z,5.2
2019-02-22T11:58:29.043Z,5.2
2019-02-22T11:59:29.026Z,5.2
2019-02-22T12:00:29.041Z,5.2
2019-02-22T12:01:29.092Z,5.2
2019-02-22T12:02:29.073Z,5.2
2019-02-22T12:03:29.087Z,5.2
2019-02-22T12:04:29.098Z,5.2
2019-02-22T12:05:29.130Z,5.2
2019-02-22T12:06:29.194Z,5.2
2019-02-22T12:07:29.286Z,5.2
2019-02-22T12:08:29.295Z,5.2
2019-02-22T12:09:29.328Z,5.2
2019-02-22T12:10:29.342Z,5.2
2019-02-22T12:11:29.430Z,5.2
2019-02-22T12:12:29.546Z,5.2
2019-02-22T12:13:31.856Z,5.1
2019-02-22T12:14:29.649Z,5.1
2019-02-22T12:15:31.383Z,5.1
2019-02-22T12:16:29.670Z,5
2019-02-22T12:17:29.823Z,5
2019-02-22T12:18:29.801Z,5
2019-02-22T12:19:29.821Z,5
2019-02-22T12:20:29.946Z,5
2019-02-22T12:21:29.889Z,5
2019-02-22T12:22:29.933Z,5
2019-02-22T12:23:29.978Z,5
2019-02-22T12:24:29.996Z,5
2019-02-22T12:25:30.084Z,5
2019-02-22T12:26:31.833Z,4.9
2019-02-22T12:27:30.188Z,4.9
2019-02-22T12:28:30.230Z,4.9
2019-02-22T12:29:30.231Z,4.9
2019-02-22T12:30:30.319Z,4.9
2019-02-22T12:31:30.375Z,4.9
2019-02-22T12:32:30.392Z,4.9
2019-02-22T12:33:30.415Z,4.9
2019-02-22T12:34:30.469Z,4.9
2019-02-22T12:35:30.528Z,4.9
2019-02-22T12:36:30.547Z,4.9
2019-02-22T12:37:30.613Z,4.9
2019-02-22T12:38:30.624Z,4.9
2019-02-22T12:39:30.715Z,4.8
2019-02-22T12:40:30.739Z,4.8
2019-02-22T12:41:30.765Z,4.8
2019-02-22T12:42:30.760Z,4.8
2019-02-22T12:43:30.817Z,4.8
2019-02-22T12:44:30.881Z,4.8
2019-02-22T12:45:30.931Z,4.8
2019-02-22T12:46:30.961Z,4.8
2019-02-22T12:47:30.986Z,4.8
2019-02-22T12:48:31.009Z,4.7
2019-02-22T12:49:31.076Z,4.7
2019-02-22T12:50:31.082Z,4.7
2019-02-22T12:51:31.148Z,4.7
2019-02-22T12:52:31.371Z,4.7
2019-02-22T12:53:31.214Z,4.7
2019-02-22T12:54:31.252Z,4.7
2019-02-22T12:55:31.299Z,4.7
2019-02-22T12:56:55.741Z,4.6
2019-02-22T12:57:31.378Z,4.6
2019-02-22T12:58:31.410Z,4.6
2019-02-22T12:59:31.428Z,4.6
2019-02-22T13:00:31.469Z,4.6
2019-02-22T13:01:31.521Z,4.6
2019-02-22T13:02:31.551Z,4.6
2019-02-22T13:03:31.582Z,4.6
2019-02-22T13:04:31.619Z,4.6
2019-02-22T13:05:31.628Z,4.6
2019-02-22T13:06:31.679Z,4.6
2019-02-22T13:07:31.703Z,4.6
2019-02-22T13:08:31.762Z,4.6
2019-02-22T13:09:36.107Z,4.6
2019-02-22T13:10:31.900Z,4.6
2019-02-22T13:11:31.861Z,4.6
2019-02-22T13:12:31.849Z,4.6
2019-02-22T13:13:31.867Z,4.6
2019-02-22T13:14:31.906Z,4.6
2019-02-22T13:15:31.953Z,4.6
2019-02-22T13:16:32.032Z,4.6
2019-02-22T13:17:32.051Z,4.6
2019-02-22T13:18:32.007Z,4.6
2019-02-22T13:19:32.035Z,4.6
2019-02-22T13:20:32.059Z,4.5
2019-02-22T13:21:32.072Z,4.5
2019-02-22T13:22:32.119Z,4.5
2019-02-22T13:23:32.104Z,4.5
2019-02-22T13:24:32.110Z,4.5
2019-02-22T13:25:32.136Z,4.5
2019-02-22T13:26:32.189Z,4.5
2019-02-22T13:27:32.153Z,4.5
2019-02-22T13:28:32.169Z,4.5
2019-02-22T13:29:32.189Z,4.5
2019-02-22T13:30:32.232Z,4.5
2019-02-22T13:31:32.252Z,4.5
2019-02-22T13:32:32.230Z,4.5
2019-02-22T13:33:32.235Z,4.4
2019-02-22T13:34:32.240Z,4.4
2019-02-22T13:35:32.373Z,4.3
2019-02-22T13:36:32.347Z,4.3
2019-02-22T13:37:32.308Z,4.3
2019-02-22T13:38:32.304Z,4.3
2019-02-22T13:39:34.541Z,4.2
2019-02-22T13:40:32.324Z,4.2
2019-02-22T13:41:33.367Z,4.2
2019-02-22T13:42:32.296Z,4.2
2019-02-22T13:43:32.387Z,4.2
2019-02-22T13:44:32.490Z,4.3
2019-02-22T13:45:32.524Z,4.3
2019-02-22T13:46:32.592Z,4.3
2019-02-22T13:47:32.651Z,4.2
2019-02-22T13:48:32.749Z,4.2
2019-02-22T13:49:32.799Z,4.2
2019-02-22T13:50:32.864Z,4.2
2019-02-22T13:51:34.004Z,4.2